createdAt,value
2022-09-14T00:01:34.361Z,18.00
2022-09-14T00:04:04.601Z,18.10
2022-09-14T00:06:33.527Z,18.10
2022-09-14T00:09:03.205Z,18.10
2022-09-14T00:11:34.284Z,18.10
2022-09-14T00:14:03.361Z,18.10
2022-09-14T00:16:34.692Z,18.10
2022-09-14T00:19:06.083Z,18.00
2022-09-14T00:21:35.185Z,18.10
2022-09-14T00:24:04.050Z,18.00
2022-09-14T00:26:33.662Z,18.10
2022-09-14T00:29:04.790Z,18.00
2022-09-14T00:31:33.802Z,18.00
2022-09-14T00:34:02.832Z,18.00
2022-09-14T00:36:32.236Z,18.10
2022-09-14T00:39:01.034Z,18.10
2022-09-14T00:41:32.788Z,18.10
2022-09-14T00:44:05.817Z,18.00
2022-09-14T00:46:37.510Z,18.10
2022-09-14T00:49:08.687Z,18.10
2022-09-14T00:51:40.582Z,18.10
2022-09-14T00:54:08.610Z,18.20
2022-09-14T00:56:36.865Z,18.10
2022-09-14T00:59:14.102Z,18.10
2022-09-14T01:01:42.597Z,18.10
2022-09-14T01:04:10.652Z,18.10
2022-09-14T01:06:44.590Z,18.10
2022-09-14T01:09:27.652Z,18.10
2022-09-14T01:12:09.469Z,18.10
2022-09-14T01:14:45.149Z,18.00
2022-09-14T01:17:19.379Z,18.00
2022-09-14T01:20:04.994Z,18.10
2022-09-14T01:22:38.792Z,18.10
2022-09-14T01:25:19.248Z,18.00
2022-09-14T01:27:51.521Z,18.10
2022-09-14T01:30:22.623Z,18.00
2022-09-14T01:32:54.645Z,18.00
2022-09-14T01:35:28.002Z,18.10
2022-09-14T01:38:01.569Z,18.10
2022-09-14T01:40:33.803Z,18.10
2022-09-14T01:43:07.837Z,18.10
2022-09-14T01:45:38.328Z,18.00
2022-09-14T01:48:09.741Z,18.00
2022-09-14T01:50:41.864Z,18.00
2022-09-14T01:53:13.266Z,18.00
2022-09-14T01:55:45.433Z,18.00
2022-09-14T01:58:19.554Z,18.00
2022-09-14T02:00:50.147Z,18.00
2022-09-14T02:03:22.303Z,18.00
2022-09-14T02:05:57.306Z,18.00
2022-09-14T02:08:28.436Z,18.00
2022-09-14T02:10:57.228Z,18.00
2022-09-14T02:13:27.272Z,18.00
2022-09-14T02:15:55.511Z,18.00
2022-09-14T02:18:23.856Z,17.90
2022-09-14T02:20:55.942Z,18.00
2022-09-14T02:23:24.689Z,18.00
2022-09-14T02:25:53.672Z,18.00
2022-09-14T02:28:22.717Z,18.00
2022-09-14T02:31:04.425Z,17.90
2022-09-14T02:33:41.666Z,17.90
2022-09-14T02:36:17.146Z,17.90
2022-09-14T02:38:51.750Z,17.90
2022-09-14T02:41:27.576Z,17.90
2022-09-14T02:44:02.134Z,17.90
2022-09-14T02:46:38.081Z,18.00
2022-09-14T02:49:16.086Z,17.90
2022-09-14T02:51:56.519Z,17.90
2022-09-14T02:54:30.107Z,17.80
2022-09-14T02:57:01.530Z,17.80
2022-09-14T02:59:30.193Z,17.80
2022-09-14T03:02:00.783Z,17.90
2022-09-14T03:04:29.077Z,17.90
2022-09-14T03:06:57.062Z,17.90
2022-09-14T03:09:25.140Z,17.90
2022-09-14T03:11:53.113Z,17.80
2022-09-14T03:14:21.126Z,17.90
2022-09-14T03:16:49.168Z,17.80
2022-09-14T03:19:18.644Z,17.80
2022-09-14T03:21:46.662Z,17.90
2022-09-14T03:24:14.713Z,17.80
2022-09-14T03:26:42.942Z,17.80
2022-09-14T03:29:11.358Z,17.80
2022-09-14T03:31:39.466Z,17.80
2022-09-14T03:34:07.575Z,17.80
2022-09-14T03:36:36.938Z,17.90
2022-09-14T03:39:05.144Z,17.90
2022-09-14T03:41:33.138Z,17.90
2022-09-14T03:44:01.228Z,17.90
2022-09-14T03:46:29.347Z,17.90
2022-09-14T03:48:57.592Z,17.80
2022-09-14T03:51:25.738Z,17.80
2022-09-14T03:53:55.086Z,17.80
2022-09-14T03:56:24.187Z,17.80
2022-09-14T03:58:52.276Z,17.80
2022-09-14T04:01:21.850Z,17.80
2022-09-14T04:03:50.610Z,17.80
2022-09-14T04:06:20.180Z,17.90
2022-09-14T04:08:48.733Z,17.90
2022-09-14T04:11:20.210Z,17.80
2022-09-14T04:13:48.735Z,17.80
2022-09-14T04:16:17.987Z,17.80
2022-09-14T04:18:46.337Z,17.80
2022-09-14T04:21:17.421Z,17.80
2022-09-14T04:24:10.533Z,17.80
2022-09-14T04:26:35.636Z,17.80
2022-09-14T04:29:04.054Z,17.80
2022-09-14T04:31:32.800Z,17.80
2022-09-14T04:34:00.831Z,17.80
2022-09-14T04:36:31.039Z,17.80
2022-09-14T04:39:00.827Z,17.80
2022-09-14T04:41:29.714Z,17.80
2022-09-14T04:44:00.138Z,17.80
2022-09-14T04:46:29.912Z,17.80
2022-09-14T04:48:58.277Z,17.80
2022-09-14T04:51:29.534Z,17.80
2022-09-14T04:53:59.226Z,17.80
2022-09-14T04:56:28.921Z,17.80
2022-09-14T04:59:00.360Z,17.80
2022-09-14T05:01:30.383Z,17.70
2022-09-14T05:03:58.696Z,17.70
2022-09-14T05:06:29.342Z,17.70
2022-09-14T05:08:57.900Z,17.70
2022-09-14T05:11:28.434Z,17.80
2022-09-14T05:13:57.236Z,17.80
2022-09-14T05:16:27.830Z,17.80
2022-09-14T05:18:57.629Z,17.80
2022-09-14T05:21:26.130Z,17.80
2022-09-14T05:23:55.983Z,17.80
2022-09-14T05:26:25.547Z,17.70
2022-09-14T05:28:56.119Z,17.70
2022-09-14T05:31:26.660Z,17.70
2022-09-14T05:33:55.657Z,17.80
2022-09-14T05:36:24.443Z,17.80
2022-09-14T05:38:53.432Z,17.80
2022-09-14T05:41:21.605Z,17.80
2022-09-14T05:43:49.650Z,17.80
2022-09-14T05:46:20.191Z,17.80
2022-09-14T05:48:51.772Z,17.80
2022-09-14T05:51:23.449Z,17.90
2022-09-14T05:53:52.650Z,17.80
2022-09-14T05:56:22.089Z,17.80
2022-09-14T05:58:50.571Z,17.80
2022-09-14T06:01:20.613Z,17.80
2022-09-14T06:03:50.772Z,17.80
2022-09-14T06:06:20.386Z,17.80
2022-09-14T06:08:52.261Z,17.80
2022-09-14T06:11:21.751Z,17.80
2022-09-14T06:13:50.643Z,17.80
2022-09-14T06:16:21.169Z,17.80
2022-09-14T06:18:50.835Z,17.80
2022-09-14T06:21:20.961Z,18.00
2022-09-14T06:23:50.282Z,17.80
2022-09-14T06:26:18.814Z,17.80
2022-09-14T06:28:47.269Z,17.80
2022-09-14T06:31:17.706Z,17.80
2022-09-14T06:33:46.776Z,17.80
2022-09-14T06:36:19.588Z,17.80
2022-09-14T06:38:49.966Z,17.80
2022-09-14T06:41:20.315Z,17.80
2022-09-14T06:43:49.041Z,17.80
2022-09-14T06:46:19.877Z,17.80
2022-09-14T06:48:50.201Z,17.80
2022-09-14T06:51:21.604Z,17.80
2022-09-14T06:53:50.625Z,17.90
2022-09-14T06:56:21.889Z,17.90
2022-09-14T06:58:52.098Z,17.90
2022-09-14T07:01:21.537Z,17.90
2022-09-14T07:03:51.453Z,18.00
2022-09-14T07:06:22.577Z,18.10
2022-09-14T07:08:52.614Z,18.00
2022-09-14T07:11:23.480Z,18.00
2022-09-14T07:13:51.628Z,18.00
2022-09-14T07:16:19.678Z,18.00
2022-09-14T07:18:48.244Z,18.10
2022-09-14T07:21:19.326Z,18.00
2022-09-14T07:23:49.357Z,18.10
2022-09-14T07:26:20.223Z,18.10
2022-09-14T07:28:51.201Z,18.10
2022-09-14T07:31:22.126Z,18.10
2022-09-14T07:33:53.663Z,18.20
2022-09-14T07:36:22.642Z,18.20
2022-09-14T07:38:53.157Z,18.20
2022-09-14T07:41:21.665Z,18.20
2022-09-14T07:43:50.962Z,18.30
2022-09-14T07:46:19.931Z,18.30
2022-09-14T07:48:49.088Z,18.40
2022-09-14T07:51:17.765Z,18.40
2022-09-14T07:53:45.929Z,18.40
2022-09-14T07:56:16.631Z,18.50
2022-09-14T07:58:45.464Z,18.50
2022-09-14T08:01:17.786Z,18.50
2022-09-14T08:03:48.909Z,18.60
2022-09-14T08:06:18.500Z,18.60
2022-09-14T08:08:48.234Z,18.70
2022-09-14T08:11:19.378Z,18.70
2022-09-14T08:13:50.384Z,18.70
2022-09-14T08:16:19.192Z,18.80
2022-09-14T08:18:47.806Z,18.80
2022-09-14T08:21:17.564Z,18.80
2022-09-14T08:23:45.998Z,18.80
2022-09-14T08:26:16.736Z,18.80
2022-09-14T08:28:47.003Z,18.90
2022-09-14T08:31:17.523Z,18.80
2022-09-14T08:33:47.474Z,18.80
2022-09-14T08:36:17.961Z,18.90
2022-09-14T08:38:46.081Z,18.90
2022-09-14T08:41:22.326Z,19.00
2022-09-14T08:43:51.640Z,19.00
2022-09-14T08:46:27.802Z,19.00
2022-09-14T08:48:55.762Z,19.10
2022-09-14T08:51:24.314Z,19.00
2022-09-14T08:53:53.539Z,19.10
2022-09-14T08:56:25.373Z,19.10
2022-09-14T08:59:08.733Z,19.10
2022-09-14T09:01:45.444Z,19.20
2022-09-14T09:04:22.592Z,19.20
2022-09-14T09:06:57.990Z,19.20
2022-09-14T09:09:32.410Z,19.20
2022-09-14T09:12:01.673Z,19.20
2022-09-14T09:14:34.908Z,19.20
2022-09-14T09:17:11.255Z,19.20
2022-09-14T09:19:53.506Z,19.20
2022-09-14T09:22:25.182Z,19.30
2022-09-14T09:24:55.990Z,19.20
2022-09-14T09:27:25.289Z,19.20
2022-09-14T09:29:54.728Z,19.20
2022-09-14T09:32:25.829Z,19.20
2022-09-14T09:34:54.147Z,19.20
2022-09-14T09:37:38.856Z,19.20
2022-09-14T09:40:16.519Z,19.30
2022-09-14T09:43:08.620Z,19.30
2022-09-14T09:45:56.482Z,19.40
2022-09-14T09:48:28.779Z,19.40
2022-09-14T09:51:04.399Z,19.50
2022-09-14T09:53:35.110Z,19.60
2022-09-14T09:56:03.927Z,19.60
2022-09-14T09:58:35.644Z,19.60
2022-09-14T10:01:12.199Z,19.70
2022-09-14T10:03:41.388Z,19.70
2022-09-14T10:06:12.434Z,19.60
2022-09-14T10:08:45.477Z,19.60
2022-09-14T10:11:32.833Z,19.50
2022-09-14T10:14:01.469Z,19.60
2022-09-14T10:16:37.442Z,19.60
2022-09-14T10:19:14.982Z,19.60
2022-09-14T10:22:23.004Z,19.60
2022-09-14T10:24:57.058Z,19.70
2022-09-14T10:27:41.284Z,19.70
2022-09-14T10:30:17.223Z,19.80
2022-09-14T10:32:51.005Z,19.90
2022-09-14T10:35:20.431Z,20.00
2022-09-14T10:37:58.209Z,20.00
2022-09-14T10:40:33.990Z,20.10
2022-09-14T10:43:12.580Z,20.00
2022-09-14T10:45:44.703Z,20.10
2022-09-14T10:48:40.683Z,20.10
2022-09-14T10:51:27.523Z,20.10
2022-09-14T10:54:02.354Z,20.10
2022-09-14T10:56:40.755Z,20.10
2022-09-14T10:59:23.623Z,20.30
2022-09-14T11:02:06.487Z,20.40
2022-09-14T11:04:58.842Z,20.60
2022-09-14T11:07:35.787Z,20.70
2022-09-14T11:10:16.077Z,20.80
2022-09-14T11:12:51.670Z,20.80
2022-09-14T11:15:27.455Z,20.70
2022-09-14T11:18:15.492Z,20.60
2022-09-14T11:20:55.775Z,20.50
2022-09-14T11:23:40.360Z,20.50
2022-09-14T11:26:12.786Z,20.50
2022-09-14T11:28:44.757Z,20.40
2022-09-14T11:31:18.235Z,20.30
2022-09-14T11:33:52.890Z,20.30
2022-09-14T11:36:25.817Z,20.30
2022-09-14T11:38:57.928Z,20.20
2022-09-14T11:41:32.181Z,20.10
2022-09-14T11:44:03.705Z,20.00
2022-09-14T11:46:35.611Z,19.90
2022-09-14T11:49:13.713Z,19.90
2022-09-14T11:51:50.149Z,19.90
2022-09-14T11:54:21.293Z,19.80
2022-09-14T11:56:51.485Z,19.80
2022-09-14T11:59:37.632Z,19.70
2022-09-14T12:02:51.903Z,19.70
2022-09-14T12:05:32.087Z,19.60
2022-09-14T12:08:04.231Z,19.50
2022-09-14T12:10:32.465Z,19.40
2022-09-14T12:13:20.862Z,19.40
2022-09-14T12:15:49.052Z,19.40
2022-09-14T12:18:28.253Z,19.30
2022-09-14T12:21:02.738Z,19.40
2022-09-14T12:23:43.099Z,19.50
2022-09-14T12:26:33.664Z,19.70
2022-09-14T12:29:32.471Z,19.80
2022-09-14T12:32:07.075Z,20.00
2022-09-14T12:34:35.568Z,20.20
2022-09-14T12:37:31.347Z,20.40
2022-09-14T12:40:33.010Z,20.50
2022-09-14T12:43:49.278Z,20.60
2022-09-14T12:46:38.492Z,20.80
2022-09-14T12:49:31.596Z,20.70
2022-09-14T12:52:09.784Z,20.70
2022-09-14T12:54:51.455Z,20.70
2022-09-14T12:57:34.274Z,20.70
2022-09-14T13:00:12.678Z,20.60
2022-09-14T13:03:02.129Z,20.60
2022-09-14T13:05:33.527Z,20.60
2022-09-14T13:08:03.976Z,20.50
2022-09-14T13:10:34.243Z,20.50
2022-09-14T13:13:09.569Z,20.50
2022-09-14T13:15:50.613Z,20.40
2022-09-14T13:18:33.778Z,20.40
2022-09-14T13:21:04.977Z,20.30
2022-09-14T13:23:39.277Z,20.30
2022-09-14T13:26:12.507Z,20.20
2022-09-14T13:28:45.399Z,20.20
2022-09-14T13:31:15.736Z,20.10
2022-09-14T13:33:49.874Z,20.00
2022-09-14T13:36:21.203Z,20.00
2022-09-14T13:38:50.059Z,19.90
2022-09-14T13:41:22.823Z,19.90
2022-09-14T13:43:54.761Z,19.90
2022-09-14T13:46:23.958Z,19.80
2022-09-14T13:48:53.502Z,19.80
2022-09-14T13:51:25.355Z,19.80
2022-09-14T13:53:55.603Z,19.80
2022-09-14T13:56:28.066Z,19.90
2022-09-14T13:59:19.179Z,19.80
2022-09-14T14:01:54.827Z,19.60
2022-09-14T14:04:34.736Z,19.60
2022-09-14T14:07:06.500Z,19.60
2022-09-14T14:09:46.618Z,19.60
2022-09-14T14:12:50.892Z,19.70
2022-09-14T14:15:39.580Z,19.70
2022-09-14T14:18:32.717Z,19.70
2022-09-14T14:21:15.041Z,19.70
2022-09-14T14:24:02.783Z,19.70
2022-09-14T14:26:32.676Z,19.60
2022-09-14T14:29:09.166Z,19.50
2022-09-14T14:31:38.619Z,19.50
2022-09-14T14:34:18.857Z,19.40
2022-09-14T14:36:47.982Z,19.30
2022-09-14T14:39:16.319Z,19.20
2022-09-14T14:41:44.529Z,19.00
2022-09-14T14:44:17.024Z,19.10
2022-09-14T14:46:46.544Z,19.10
2022-09-14T14:49:15.734Z,19.20
2022-09-14T14:51:44.307Z,19.30
2022-09-14T14:54:16.709Z,19.30
2022-09-14T14:56:46.422Z,19.30
2022-09-14T14:59:26.601Z,19.30
2022-09-14T15:01:56.796Z,19.10
2022-09-14T15:04:25.027Z,19.00
2022-09-14T15:06:53.569Z,19.00
2022-09-14T15:09:23.760Z,19.00
2022-09-14T15:11:54.116Z,19.10
2022-09-14T15:14:26.935Z,19.00
2022-09-14T15:17:00.065Z,19.00
2022-09-14T15:19:28.637Z,19.00
2022-09-14T15:22:01.081Z,19.00
2022-09-14T15:24:30.290Z,19.00
2022-09-14T15:26:58.688Z,18.90
2022-09-14T15:29:26.708Z,18.80
2022-09-14T15:31:56.574Z,18.70
2022-09-14T15:34:24.757Z,18.70
2022-09-14T15:36:54.390Z,18.70
2022-09-14T15:39:26.507Z,18.60
2022-09-14T15:41:55.987Z,18.60
2022-09-14T15:44:24.200Z,18.60
2022-09-14T15:46:52.929Z,18.60
2022-09-14T15:49:23.320Z,18.60
2022-09-14T15:51:53.041Z,18.70
2022-09-14T15:54:23.930Z,18.70
2022-09-14T15:56:54.090Z,18.60
2022-09-14T15:59:22.962Z,18.60
2022-09-14T16:01:51.088Z,18.60
2022-09-14T16:04:20.064Z,18.60
2022-09-14T16:06:49.665Z,18.40
2022-09-14T16:09:20.386Z,18.50
2022-09-14T16:11:48.767Z,18.40
2022-09-14T16:14:17.978Z,18.40
2022-09-14T16:16:46.151Z,18.40
2022-09-14T16:19:15.710Z,18.30
2022-09-14T16:21:44.030Z,18.30
2022-09-14T16:24:15.183Z,18.20
2022-09-14T16:26:43.967Z,18.10
2022-09-14T16:29:13.840Z,18.10
2022-09-14T16:31:44.320Z,18.10
2022-09-14T16:34:15.706Z,18.20
2022-09-14T16:36:44.301Z,18.20
2022-09-14T16:39:20.182Z,18.20
2022-09-14T16:41:48.241Z,18.20
2022-09-14T16:44:18.753Z,18.20
2022-09-14T16:46:48.617Z,18.10
2022-09-14T16:49:17.067Z,18.20
2022-09-14T16:51:45.402Z,18.20
2022-09-14T16:54:17.358Z,18.20
2022-09-14T16:56:46.326Z,18.10
2022-09-14T16:59:15.762Z,18.10
2022-09-14T17:01:48.712Z,18.10
2022-09-14T17:04:21.998Z,18.10
2022-09-14T17:06:51.532Z,18.10
2022-09-14T17:09:24.369Z,18.00
2022-09-14T17:11:52.952Z,17.90
2022-09-14T17:14:23.292Z,17.90
2022-09-14T17:16:51.415Z,17.90
2022-09-14T17:19:20.056Z,17.90
2022-09-14T17:21:48.982Z,17.80
2022-09-14T17:24:18.832Z,17.80
2022-09-14T17:26:48.776Z,17.70
2022-09-14T17:29:17.355Z,17.70
2022-09-14T17:31:46.556Z,17.70
2022-09-14T17:34:16.870Z,17.70
2022-09-14T17:36:45.417Z,17.70
2022-09-14T17:39:15.321Z,17.60
2022-09-14T17:41:44.220Z,17.60
2022-09-14T17:44:15.927Z,17.50
2022-09-14T17:46:52.206Z,17.50
2022-09-14T17:49:22.134Z,17.50
2022-09-14T17:51:50.772Z,17.50
2022-09-14T17:54:19.670Z,17.40
2022-09-14T17:56:47.851Z,17.50
2022-09-14T17:59:20.070Z,17.40
2022-09-14T18:01:48.697Z,17.40
2022-09-14T18:04:17.377Z,17.30
2022-09-14T18:06:48.181Z,17.30
2022-09-14T18:09:18.476Z,17.20
2022-09-14T18:11:47.223Z,17.20
2022-09-14T18:14:17.252Z,17.10
2022-09-14T18:16:46.103Z,17.10
2022-09-14T18:19:14.795Z,17.10
2022-09-14T18:21:43.523Z,17.10
2022-09-14T18:24:12.512Z,17.10
2022-09-14T18:26:40.942Z,17.10
2022-09-14T18:29:08.945Z,17.10
2022-09-14T18:31:38.370Z,17.10
2022-09-14T18:34:08.287Z,17.10
2022-09-14T18:36:37.182Z,17.10
2022-09-14T18:39:05.558Z,17.00
2022-09-14T18:41:34.126Z,17.00
2022-09-14T18:44:03.440Z,17.10
2022-09-14T18:46:31.787Z,17.10
2022-09-14T18:49:02.380Z,17.10
2022-09-14T18:51:31.961Z,17.10
2022-09-14T18:54:03.071Z,17.10
2022-09-14T18:56:33.086Z,17.00
2022-09-14T18:59:02.217Z,17.00
2022-09-14T19:01:30.399Z,17.00
2022-09-14T19:03:58.948Z,17.00
2022-09-14T19:06:28.373Z,17.00
2022-09-14T19:08:56.594Z,17.10
2022-09-14T19:11:28.020Z,17.10
2022-09-14T19:13:57.458Z,17.10
2022-09-14T19:16:25.755Z,17.00
2022-09-14T19:18:53.783Z,16.90
2022-09-14T19:21:24.231Z,16.90
2022-09-14T19:24:00.364Z,16.90
2022-09-14T19:26:30.634Z,16.90
2022-09-14T19:29:00.884Z,16.90
2022-09-14T19:31:30.746Z,16.80
2022-09-14T19:33:59.142Z,16.80
2022-09-14T19:36:28.846Z,16.80
2022-09-14T19:39:01.240Z,16.90
2022-09-14T19:41:30.541Z,16.70
2022-09-14T19:43:58.689Z,16.70
2022-09-14T19:46:27.513Z,16.70
2022-09-14T19:48:55.845Z,16.70
2022-09-14T19:51:25.918Z,16.70
2022-09-14T19:53:56.936Z,16.70
2022-09-14T19:56:28.336Z,16.70
2022-09-14T19:58:58.645Z,16.70
2022-09-14T20:01:28.446Z,16.70
2022-09-14T20:03:56.997Z,16.70
2022-09-14T20:06:29.536Z,16.70
2022-09-14T20:08:59.250Z,16.70
2022-09-14T20:11:31.061Z,16.70
2022-09-14T20:14:01.157Z,16.70
2022-09-14T20:16:31.730Z,16.70
2022-09-14T20:19:07.130Z,16.70
2022-09-14T20:21:36.038Z,16.70
2022-09-14T20:24:15.673Z,16.70
2022-09-14T20:26:46.272Z,16.70
2022-09-14T20:29:16.066Z,16.70
2022-09-14T20:31:47.029Z,16.70
2022-09-14T20:34:16.623Z,16.70
2022-09-14T20:36:44.853Z,16.60
2022-09-14T20:39:12.937Z,16.50
2022-09-14T20:41:41.350Z,16.40
2022-09-14T20:44:11.930Z,16.40
2022-09-14T20:46:41.499Z,16.30
2022-09-14T20:49:12.020Z,16.20
2022-09-14T20:51:41.184Z,16.20
2022-09-14T20:54:13.131Z,16.20
2022-09-14T20:56:42.255Z,16.10
2022-09-14T20:59:14.487Z,16.10
2022-09-14T21:01:44.719Z,16.10
2022-09-14T21:04:14.762Z,16.10
2022-09-14T21:06:48.637Z,16.10
2022-09-14T21:09:18.721Z,16.10
2022-09-14T21:11:47.855Z,16.10
2022-09-14T21:14:19.566Z,16.10
2022-09-14T21:16:50.294Z,16.00
2022-09-14T21:19:20.357Z,16.00
2022-09-14T21:21:49.960Z,16.00
2022-09-14T21:24:19.432Z,16.00
2022-09-14T21:26:47.528Z,15.90
2022-09-14T21:29:20.261Z,15.90
2022-09-14T21:31:49.612Z,15.80
2022-09-14T21:34:17.848Z,15.90
2022-09-14T21:36:47.754Z,15.80
2022-09-14T21:39:17.698Z,15.80
2022-09-14T21:41:46.210Z,15.80
2022-09-14T21:44:14.573Z,15.80
2022-09-14T21:46:44.067Z,15.80
2022-09-14T21:49:15.427Z,15.90
2022-09-14T21:51:44.268Z,15.90
2022-09-14T21:54:13.861Z,15.90
2022-09-14T21:56:43.972Z,16.00
2022-09-14T21:59:14.380Z,16.00
2022-09-14T22:01:44.556Z,16.00
2022-09-14T22:04:15.598Z,16.00
2022-09-14T22:06:45.061Z,16.00
2022-09-14T22:09:13.627Z,16.10
2022-09-14T22:11:41.626Z,16.10
2022-09-14T22:14:13.079Z,16.10
2022-09-14T22:16:41.550Z,16.20
2022-09-14T22:19:17.013Z,16.10
2022-09-14T22:21:45.361Z,16.10
2022-09-14T22:24:17.295Z,16.10
2022-09-14T22:26:46.319Z,16.10
2022-09-14T22:29:15.942Z,16.20
2022-09-14T22:31:45.655Z,16.20
2022-09-14T22:34:16.158Z,16.20
2022-09-14T22:36:44.928Z,16.20
2022-09-14T22:39:13.006Z,16.10
2022-09-14T22:41:41.822Z,16.20
2022-09-14T22:44:09.941Z,16.10
2022-09-14T22:46:37.909Z,16.10
2022-09-14T22:49:05.885Z,16.10
2022-09-14T22:51:35.268Z,16.10
2022-09-14T22:54:03.244Z,16.10
2022-09-14T22:56:32.910Z,16.10
2022-09-14T22:59:03.094Z,16.10
2022-09-14T23:01:32.866Z,16.00
2022-09-14T23:04:02.498Z,16.10
2022-09-14T23:06:32.326Z,16.00
2022-09-14T23:09:02.356Z,16.00
2022-09-14T23:11:31.128Z,16.00
2022-09-14T23:13:59.285Z,15.90
2022-09-14T23:16:29.206Z,15.80
2022-09-14T23:18:59.104Z,15.80
2022-09-14T23:21:27.728Z,15.80
2022-09-14T23:23:57.392Z,15.70
2022-09-14T23:26:27.527Z,15.70
2022-09-14T23:28:57.899Z,15.70
2022-09-14T23:31:26.416Z,15.70
2022-09-14T23:33:56.400Z,15.70
2022-09-14T23:36:25.217Z,15.60
2022-09-14T23:38:53.920Z,15.60
2022-09-14T23:41:24.129Z,15.60
2022-09-14T23:43:53.911Z,15.50
2022-09-14T23:46:22.938Z,15.50
2022-09-14T23:48:51.447Z,15.50
2022-09-14T23:51:19.465Z,15.50
2022-09-14T23:53:47.792Z,15.60
2022-09-14T23:56:15.924Z,15.50
2022-09-14T23:58:44.110Z,15.60
